Terminal Aerodrome Forecast
Issued by NWS Tampa Bay Area, FL

Home | Current Version | Previous Version | Text Only | Print | Product List | Glossary Off
Versions: 1 2 3 4 5 6 7 8 9 10 11 12 13 14 15 16 17 18 19 20 21

000
FTUS42 KTBW 231700 RRA
TAFFMY
TAF
KFMY 231741Z 2318/2418 18010G18KT P6SM SCT035 SCT250
     FM232300 17008KT P6SM SCT030 BKN250
     FM240300 16005KT 6SM BR SCT010 BKN250
     FM240700 VRB03KT 3SM BR SCT005 BKN010=

USA.gov is the U.S. government's official web portal to all federal, state and local government web resources and services.